sensor_id;sensor_type;location;lat;lon;timestamp;temperature;humidity
16287;DHT22;8251;53.568;10.018;2022-07-26T00:00:29;22.60;86.80
16287;DHT22;8251;53.568;10.018;2022-07-26T00:02:56;22.60;86.90
16287;DHT22;8251;53.568;10.018;2022-07-26T00:05:23;22.60;86.80
16287;DHT22;8251;53.568;10.018;2022-07-26T00:07:50;22.60;86.80
16287;DHT22;8251;53.568;10.018;2022-07-26T00:10:38;22.60;86.90
16287;DHT22;8251;53.568;10.018;2022-07-26T00:13:06;22.60;87.00
16287;DHT22;8251;53.568;10.018;2022-07-26T00:15:33;22.50;87.00
16287;DHT22;8251;53.568;10.018;2022-07-26T00:18:00;22.50;87.00
16287;DHT22;8251;53.568;10.018;2022-07-26T00:20:27;22.50;87.00
16287;DHT22;8251;53.568;10.018;2022-07-26T00:22:54;22.50;86.60
16287;DHT22;8251;53.568;10.018;2022-07-26T00:25:21;22.40;86.40
16287;DHT22;8251;53.568;10.018;2022-07-26T00:27:49;22.40;86.20
16287;DHT22;8251;53.568;10.018;2022-07-26T00:30:16;22.40;86.30
16287;DHT22;8251;53.568;10.018;2022-07-26T00:32:43;22.40;86.10
16287;DHT22;8251;53.568;10.018;2022-07-26T00:35:10;22.30;86.00
16287;DHT22;8251;53.568;10.018;2022-07-26T00:37:37;22.30;85.70
16287;DHT22;8251;53.568;10.018;2022-07-26T00:40:05;22.30;85.80
16287;DHT22;8251;53.568;10.018;2022-07-26T00:42:32;22.30;85.80
16287;DHT22;8251;53.568;10.018;2022-07-26T00:45:00;22.30;85.90
16287;DHT22;8251;53.568;10.018;2022-07-26T00:47:27;22.30;86.20
16287;DHT22;8251;53.568;10.018;2022-07-26T00:49:56;22.30;86.20
16287;DHT22;8251;53.568;10.018;2022-07-26T00:52:23;22.30;86.20
16287;DHT22;8251;53.568;10.018;2022-07-26T00:54:51;22.30;86.00
16287;DHT22;8251;53.568;10.018;2022-07-26T00:57:20;22.20;86.10
16287;DHT22;8251;53.568;10.018;2022-07-26T00:59:48;22.20;86.10
16287;DHT22;8251;53.568;10.018;2022-07-26T01:02:17;22.20;86.20
16287;DHT22;8251;53.568;10.018;2022-07-26T01:04:44;22.20;86.20
16287;DHT22;8251;53.568;10.018;2022-07-26T01:07:14;22.20;86.00
16287;DHT22;8251;53.568;10.018;2022-07-26T01:09:42;22.20;86.00
16287;DHT22;8251;53.568;10.018;2022-07-26T01:12:10;22.20;86.10
16287;DHT22;8251;53.568;10.018;2022-07-26T01:14:37;22.20;86.20
16287;DHT22;8251;53.568;10.018;2022-07-26T01:17:04;22.20;86.50
16287;DHT22;8251;53.568;10.018;2022-07-26T01:19:32;22.20;86.60
16287;DHT22;8251;53.568;10.018;2022-07-26T01:22:00;22.20;86.20
16287;DHT22;8251;53.568;10.018;2022-07-26T01:24:27;22.20;86.20
16287;DHT22;8251;53.568;10.018;2022-07-26T01:26:54;22.10;86.10
16287;DHT22;8251;53.568;10.018;2022-07-26T01:29:22;22.10;87.10
16287;DHT22;8251;53.568;10.018;2022-07-26T01:31:50;22.10;86.20
16287;DHT22;8251;53.568;10.018;2022-07-26T01:34:17;22.10;86.20
16287;DHT22;8251;53.568;10.018;2022-07-26T01:36:44;22.10;86.30
16287;DHT22;8251;53.568;10.018;2022-07-26T01:39:13;22.10;86.30
16287;DHT22;8251;53.568;10.018;2022-07-26T01:41:40;22.10;86.20
16287;DHT22;8251;53.568;10.018;2022-07-26T01:44:07;22.10;86.10
16287;DHT22;8251;53.568;10.018;2022-07-26T01:46:34;22.10;86.00
16287;DHT22;8251;53.568;10.018;2022-07-26T01:49:01;22.10;86.30
16287;DHT22;8251;53.568;10.018;2022-07-26T01:51:28;22.10;86.10
16287;DHT22;8251;53.568;10.018;2022-07-26T01:53:55;22.00;86.00
16287;DHT22;8251;53.568;10.018;2022-07-26T01:56:24;22.00;85.80
16287;DHT22;8251;53.568;10.018;2022-07-26T01:58:51;22.00;86.20
16287;DHT22;8251;53.568;10.018;2022-07-26T02:01:18;21.90;86.00
16287;DHT22;8251;53.568;10.018;2022-07-26T02:03:45;21.90;85.90
16287;DHT22;8251;53.568;10.018;2022-07-26T02:06:12;21.90;86.10
16287;DHT22;8251;53.568;10.018;2022-07-26T02:08:39;21.90;85.90
16287;DHT22;8251;53.568;10.018;2022-07-26T02:11:06;21.90;86.00
16287;DHT22;8251;53.568;10.018;2022-07-26T02:13:35;21.90;85.90
16287;DHT22;8251;53.568;10.018;2022-07-26T02:16:05;21.90;86.00
16287;DHT22;8251;53.568;10.018;2022-07-26T02:18:32;21.90;85.90
16287;DHT22;8251;53.568;10.018;2022-07-26T02:21:00;22.00;86.00
16287;DHT22;8251;53.568;10.018;2022-07-26T02:23:28;21.90;86.20
16287;DHT22;8251;53.568;10.018;2022-07-26T02:25:55;21.90;86.20
16287;DHT22;8251;53.568;10.018;2022-07-26T02:28:22;22.00;86.90
16287;DHT22;8251;53.568;10.018;2022-07-26T02:30:50;22.00;86.30
16287;DHT22;8251;53.568;10.018;2022-07-26T02:33:17;21.90;86.30
16287;DHT22;8251;53.568;10.018;2022-07-26T02:35:45;21.90;86.40
16287;DHT22;8251;53.568;10.018;2022-07-26T02:38:14;21.90;86.30
16287;DHT22;8251;53.568;10.018;2022-07-26T02:40:42;21.90;86.40
16287;DHT22;8251;53.568;10.018;2022-07-26T02:43:10;21.90;86.20
16287;DHT22;8251;53.568;10.018;2022-07-26T02:45:37;21.90;86.20
16287;DHT22;8251;53.568;10.018;2022-07-26T02:48:05;21.90;86.60
16287;DHT22;8251;53.568;10.018;2022-07-26T02:50:33;21.90;86.50
16287;DHT22;8251;53.568;10.018;2022-07-26T02:53:00;21.90;86.40
16287;DHT22;8251;53.568;10.018;2022-07-26T02:55:27;21.90;86.60
16287;DHT22;8251;53.568;10.018;2022-07-26T02:57:54;21.90;86.20
16287;DHT22;8251;53.568;10.018;2022-07-26T03:00:22;21.90;86.30
16287;DHT22;8251;53.568;10.018;2022-07-26T03:02:50;21.90;86.60
16287;DHT22;8251;53.568;10.018;2022-07-26T03:05:19;21.90;86.70
16287;DHT22;8251;53.568;10.018;2022-07-26T03:07:46;21.90;86.50
16287;DHT22;8251;53.568;10.018;2022-07-26T03:10:13;21.90;86.60
16287;DHT22;8251;53.568;10.018;2022-07-26T03:12:40;21.90;86.60
16287;DHT22;8251;53.568;10.018;2022-07-26T03:15:08;21.90;86.60
16287;DHT22;8251;53.568;10.018;2022-07-26T03:17:36;21.90;86.80
16287;DHT22;8251;53.568;10.018;2022-07-26T03:20:04;21.90;86.90
16287;DHT22;8251;53.568;10.018;2022-07-26T03:22:32;21.90;86.70
16287;DHT22;8251;53.568;10.018;2022-07-26T03:25:01;21.90;85.90
16287;DHT22;8251;53.568;10.018;2022-07-26T03:27:28;21.90;86.00
16287;DHT22;8251;53.568;10.018;2022-07-26T03:29:55;21.90;86.50
16287;DHT22;8251;53.568;10.018;2022-07-26T03:32:22;21.90;86.60
16287;DHT22;8251;53.568;10.018;2022-07-26T03:34:49;21.90;86.60
16287;DHT22;8251;53.568;10.018;2022-07-26T03:37:16;21.90;86.40
16287;DHT22;8251;53.568;10.018;2022-07-26T03:39:44;22.00;86.50
16287;DHT22;8251;53.568;10.018;2022-07-26T03:42:11;22.00;86.40
16287;DHT22;8251;53.568;10.018;2022-07-26T03:44:38;22.00;86.00
16287;DHT22;8251;53.568;10.018;2022-07-26T03:47:05;22.00;86.20
16287;DHT22;8251;53.568;10.018;2022-07-26T03:49:32;21.90;86.20
16287;DHT22;8251;53.568;10.018;2022-07-26T03:51:59;21.90;86.40
16287;DHT22;8251;53.568;10.018;2022-07-26T03:54:26;22.00;86.70
16287;DHT22;8251;53.568;10.018;2022-07-26T03:56:54;22.00;86.90
16287;DHT22;8251;53.568;10.018;2022-07-26T03:59:21;22.00;86.90
16287;DHT22;8251;53.568;10.018;2022-07-26T04:01:49;22.00;86.90
16287;DHT22;8251;53.568;10.018;2022-07-26T04:04:16;22.00;86.90
16287;DHT22;8251;53.568;10.018;2022-07-26T04:06:44;22.00;87.30
16287;DHT22;8251;53.568;10.018;2022-07-26T04:09:12;22.00;87.10
16287;DHT22;8251;53.568;10.018;2022-07-26T04:11:39;22.00;87.00
16287;DHT22;8251;53.568;10.018;2022-07-26T04:14:08;22.00;87.10
16287;DHT22;8251;53.568;10.018;2022-07-26T04:16:35;22.00;86.80
16287;DHT22;8251;53.568;10.018;2022-07-26T04:19:02;22.00;87.10
16287;DHT22;8251;53.568;10.018;2022-07-26T04:21:29;22.00;87.20
16287;DHT22;8251;53.568;10.018;2022-07-26T04:23:56;22.00;87.10
16287;DHT22;8251;53.568;10.018;2022-07-26T04:26:24;22.00;87.30
16287;DHT22;8251;53.568;10.018;2022-07-26T04:28:50;22.00;87.30
16287;DHT22;8251;53.568;10.018;2022-07-26T04:31:19;22.00;87.10
16287;DHT22;8251;53.568;10.018;2022-07-26T04:33:46;22.00;86.80
16287;DHT22;8251;53.568;10.018;2022-07-26T04:36:13;22.00;86.90
16287;DHT22;8251;53.568;10.018;2022-07-26T04:38:40;22.00;87.00
16287;DHT22;8251;53.568;10.018;2022-07-26T04:41:07;22.00;87.10
16287;DHT22;8251;53.568;10.018;2022-07-26T04:43:35;22.00;87.40
16287;DHT22;8251;53.568;10.018;2022-07-26T04:46:02;22.00;87.60
16287;DHT22;8251;53.568;10.018;2022-07-26T04:48:30;22.00;87.50
16287;DHT22;8251;53.568;10.018;2022-07-26T04:50:57;22.00;87.20
16287;DHT22;8251;53.568;10.018;2022-07-26T04:53:25;22.10;87.30
16287;DHT22;8251;53.568;10.018;2022-07-26T04:55:52;22.00;87.20
16287;DHT22;8251;53.568;10.018;2022-07-26T04:58:19;22.00;87.10
16287;DHT22;8251;53.568;10.018;2022-07-26T05:00:47;22.00;86.90
16287;DHT22;8251;53.568;10.018;2022-07-26T05:03:16;22.10;86.90
16287;DHT22;8251;53.568;10.018;2022-07-26T05:05:48;22.00;86.90
16287;DHT22;8251;53.568;10.018;2022-07-26T05:08:14;22.10;87.10
16287;DHT22;8251;53.568;10.018;2022-07-26T05:10:42;22.10;87.10
16287;DHT22;8251;53.568;10.018;2022-07-26T05:13:08;22.10;87.10
16287;DHT22;8251;53.568;10.018;2022-07-26T05:15:35;22.10;87.10
16287;DHT22;8251;53.568;10.018;2022-07-26T05:18:04;22.10;87.20
16287;DHT22;8251;53.568;10.018;2022-07-26T05:20:35;22.20;88.10
16287;DHT22;8251;53.568;10.018;2022-07-26T05:23:06;22.20;87.40
16287;DHT22;8251;53.568;10.018;2022-07-26T05:25:33;22.10;87.60
16287;DHT22;8251;53.568;10.018;2022-07-26T05:28:00;22.10;87.90
16287;DHT22;8251;53.568;10.018;2022-07-26T05:30:28;22.00;87.90
16287;DHT22;8251;53.568;10.018;2022-07-26T05:32:55;21.90;88.10
16287;DHT22;8251;53.568;10.018;2022-07-26T05:35:22;21.90;88.30
16287;DHT22;8251;53.568;10.018;2022-07-26T05:37:49;21.80;88.50
16287;DHT22;8251;53.568;10.018;2022-07-26T05:40:17;21.70;89.00
16287;DHT22;8251;53.568;10.018;2022-07-26T05:42:44;21.70;89.30
16287;DHT22;8251;53.568;10.018;2022-07-26T05:45:11;21.60;89.60
16287;DHT22;8251;53.568;10.018;2022-07-26T05:47:39;21.60;90.00
16287;DHT22;8251;53.568;10.018;2022-07-26T05:50:06;21.60;90.00
16287;DHT22;8251;53.568;10.018;2022-07-26T05:52:36;21.50;90.00
16287;DHT22;8251;53.568;10.018;2022-07-26T05:55:04;21.50;90.10
16287;DHT22;8251;53.568;10.018;2022-07-26T05:57:33;21.50;90.20
16287;DHT22;8251;53.568;10.018;2022-07-26T06:00:00;21.40;90.30
16287;DHT22;8251;53.568;10.018;2022-07-26T06:02:27;21.40;90.20
16287;DHT22;8251;53.568;10.018;2022-07-26T06:04:54;21.40;90.40
16287;DHT22;8251;53.568;10.018;2022-07-26T06:07:22;21.40;90.70
16287;DHT22;8251;53.568;10.018;2022-07-26T06:09:50;21.40;90.70
16287;DHT22;8251;53.568;10.018;2022-07-26T06:12:17;21.40;90.70
16287;DHT22;8251;53.568;10.018;2022-07-26T06:14:48;21.40;90.50
16287;DHT22;8251;53.568;10.018;2022-07-26T06:17:26;21.40;90.70
16287;DHT22;8251;53.568;10.018;2022-07-26T06:20:02;21.30;90.60
16287;DHT22;8251;53.568;10.018;2022-07-26T06:22:42;21.40;91.00
16287;DHT22;8251;53.568;10.018;2022-07-26T06:25:09;21.40;91.20
16287;DHT22;8251;53.568;10.018;2022-07-26T06:27:36;21.40;91.20
16287;DHT22;8251;53.568;10.018;2022-07-26T06:30:07;21.40;91.10
16287;DHT22;8251;53.568;10.018;2022-07-26T06:32:34;21.40;91.20
16287;DHT22;8251;53.568;10.018;2022-07-26T06:35:01;21.50;91.10
16287;DHT22;8251;53.568;10.018;2022-07-26T06:37:28;21.50;90.80
16287;DHT22;8251;53.568;10.018;2022-07-26T06:39:55;21.60;91.00
16287;DHT22;8251;53.568;10.018;2022-07-26T06:42:22;21.60;90.90
16287;DHT22;8251;53.568;10.018;2022-07-26T06:44:49;21.70;90.80
16287;DHT22;8251;53.568;10.018;2022-07-26T06:47:17;21.80;90.70
16287;DHT22;8251;53.568;10.018;2022-07-26T06:49:44;22.00;90.50
16287;DHT22;8251;53.568;10.018;2022-07-26T06:52:11;22.20;90.00
16287;DHT22;8251;53.568;10.018;2022-07-26T06:54:38;22.20;89.20
16287;DHT22;8251;53.568;10.018;2022-07-26T06:57:05;22.20;88.70
16287;DHT22;8251;53.568;10.018;2022-07-26T06:59:32;22.20;88.90
16287;DHT22;8251;53.568;10.018;2022-07-26T07:01:59;22.10;88.90
16287;DHT22;8251;53.568;10.018;2022-07-26T07:04:29;22.10;88.70
16287;DHT22;8251;53.568;10.018;2022-07-26T07:06:57;22.00;88.80
16287;DHT22;8251;53.568;10.018;2022-07-26T07:09:27;21.80;87.70
16287;DHT22;8251;53.568;10.018;2022-07-26T07:11:54;21.60;88.00
16287;DHT22;8251;53.568;10.018;2022-07-26T07:14:21;21.50;88.00
16287;DHT22;8251;53.568;10.018;2022-07-26T07:16:49;21.50;88.30
16287;DHT22;8251;53.568;10.018;2022-07-26T07:19:17;21.40;88.20
16287;DHT22;8251;53.568;10.018;2022-07-26T07:21:45;21.40;88.40
16287;DHT22;8251;53.568;10.018;2022-07-26T07:24:20;21.40;88.30
16287;DHT22;8251;53.568;10.018;2022-07-26T07:26:53;21.50;88.70
16287;DHT22;8251;53.568;10.018;2022-07-26T07:29:21;21.50;88.80
16287;DHT22;8251;53.568;10.018;2022-07-26T07:31:48;21.60;88.00
16287;DHT22;8251;53.568;10.018;2022-07-26T07:34:21;21.60;87.40
16287;DHT22;8251;53.568;10.018;2022-07-26T07:37:18;21.70;87.30
16287;DHT22;8251;53.568;10.018;2022-07-26T07:39:51;21.80;87.60
16287;DHT22;8251;53.568;10.018;2022-07-26T07:42:18;22.00;87.60
16287;DHT22;8251;53.568;10.018;2022-07-26T07:44:46;22.10;86.60
16287;DHT22;8251;53.568;10.018;2022-07-26T07:47:15;22.00;85.60
16287;DHT22;8251;53.568;10.018;2022-07-26T07:49:46;21.90;85.20
16287;DHT22;8251;53.568;10.018;2022-07-26T07:52:15;21.70;85.00
16287;DHT22;8251;53.568;10.018;2022-07-26T07:54:43;21.60;85.60
16287;DHT22;8251;53.568;10.018;2022-07-26T07:57:10;21.50;84.70
16287;DHT22;8251;53.568;10.018;2022-07-26T07:59:37;21.50;85.50
16287;DHT22;8251;53.568;10.018;2022-07-26T08:02:10;21.40;85.40
16287;DHT22;8251;53.568;10.018;2022-07-26T08:04:39;21.40;86.10
16287;DHT22;8251;53.568;10.018;2022-07-26T08:07:07;21.40;85.80
16287;DHT22;8251;53.568;10.018;2022-07-26T08:09:36;21.50;86.50
16287;DHT22;8251;53.568;10.018;2022-07-26T08:12:04;21.60;85.90
16287;DHT22;8251;53.568;10.018;2022-07-26T08:14:31;21.70;86.60
16287;DHT22;8251;53.568;10.018;2022-07-26T08:16:57;22.10;85.60
16287;DHT22;8251;53.568;10.018;2022-07-26T08:19:27;22.80;83.90
16287;DHT22;8251;53.568;10.018;2022-07-26T08:21:55;23.40;81.50
16287;DHT22;8251;53.568;10.018;2022-07-26T08:24:22;23.90;79.40
16287;DHT22;8251;53.568;10.018;2022-07-26T08:26:55;24.20;79.00
16287;DHT22;8251;53.568;10.018;2022-07-26T08:29:29;24.50;76.40
16287;DHT22;8251;53.568;10.018;2022-07-26T08:31:59;24.80;75.30
16287;DHT22;8251;53.568;10.018;2022-07-26T08:34:26;25.10;72.80
16287;DHT22;8251;53.568;10.018;2022-07-26T08:36:53;25.50;71.80
16287;DHT22;8251;53.568;10.018;2022-07-26T08:39:20;25.60;70.70
16287;DHT22;8251;53.568;10.018;2022-07-26T08:41:47;25.90;69.90
16287;DHT22;8251;53.568;10.018;2022-07-26T08:44:16;26.00;69.10
16287;DHT22;8251;53.568;10.018;2022-07-26T08:46:48;26.00;68.30
16287;DHT22;8251;53.568;10.018;2022-07-26T08:49:24;25.70;68.10
16287;DHT22;8251;53.568;10.018;2022-07-26T08:51:54;25.60;69.50
16287;DHT22;8251;53.568;10.018;2022-07-26T08:54:25;25.60;69.50
16287;DHT22;8251;53.568;10.018;2022-07-26T08:56:52;25.40;68.60
16287;DHT22;8251;53.568;10.018;2022-07-26T08:59:21;25.10;67.40
16287;DHT22;8251;53.568;10.018;2022-07-26T09:01:52;25.00;67.70
16287;DHT22;8251;53.568;10.018;2022-07-26T09:04:21;25.00;68.70
16287;DHT22;8251;53.568;10.018;2022-07-26T09:07:02;24.80;68.90
16287;DHT22;8251;53.568;10.018;2022-07-26T09:09:38;24.50;68.00
16287;DHT22;8251;53.568;10.018;2022-07-26T09:12:17;24.20;67.00
16287;DHT22;8251;53.568;10.018;2022-07-26T09:14:48;23.90;67.30
16287;DHT22;8251;53.568;10.018;2022-07-26T09:17:17;23.60;68.50
16287;DHT22;8251;53.568;10.018;2022-07-26T09:19:45;23.30;70.10
16287;DHT22;8251;53.568;10.018;2022-07-26T09:22:28;23.20;71.80
16287;DHT22;8251;53.568;10.018;2022-07-26T09:24:55;23.10;72.50
16287;DHT22;8251;53.568;10.018;2022-07-26T09:27:22;23.10;73.20
16287;DHT22;8251;53.568;10.018;2022-07-26T09:29:52;23.10;73.30
16287;DHT22;8251;53.568;10.018;2022-07-26T09:32:23;23.20;73.50
16287;DHT22;8251;53.568;10.018;2022-07-26T09:34:52;23.40;72.80
16287;DHT22;8251;53.568;10.018;2022-07-26T09:37:35;23.70;71.90
16287;DHT22;8251;53.568;10.018;2022-07-26T09:40:06;24.20;70.00
16287;DHT22;8251;53.568;10.018;2022-07-26T09:42:34;24.60;68.20
16287;DHT22;8251;53.568;10.018;2022-07-26T09:45:14;24.90;68.30
16287;DHT22;8251;53.568;10.018;2022-07-26T09:47:41;25.00;66.50
16287;DHT22;8251;53.568;10.018;2022-07-26T09:50:09;24.90;66.10
16287;DHT22;8251;53.568;10.018;2022-07-26T09:52:37;25.20;64.60
16287;DHT22;8251;53.568;10.018;2022-07-26T09:55:06;25.50;62.60
16287;DHT22;8251;53.568;10.018;2022-07-26T09:57:33;25.80;60.70
16287;DHT22;8251;53.568;10.018;2022-07-26T10:00:03;25.90;61.40
16287;DHT22;8251;53.568;10.018;2022-07-26T10:02:33;26.10;59.80
16287;DHT22;8251;53.568;10.018;2022-07-26T10:05:00;25.90;58.80
16287;DHT22;8251;53.568;10.018;2022-07-26T10:07:27;25.60;58.60
16287;DHT22;8251;53.568;10.018;2022-07-26T10:10:03;25.30;59.00
16287;DHT22;8251;53.568;10.018;2022-07-26T10:12:46;25.30;61.60
16287;DHT22;8251;53.568;10.018;2022-07-26T10:15:41;25.60;62.30
16287;DHT22;8251;53.568;10.018;2022-07-26T10:18:41;26.20;59.70
16287;DHT22;8251;53.568;10.018;2022-07-26T10:21:22;26.80;57.20
16287;DHT22;8251;53.568;10.018;2022-07-26T10:23:50;27.00;55.50
16287;DHT22;8251;53.568;10.018;2022-07-26T10:26:37;26.90;55.70
16287;DHT22;8251;53.568;10.018;2022-07-26T10:29:24;26.80;54.80
16287;DHT22;8251;53.568;10.018;2022-07-26T10:32:21;26.60;53.90
16287;DHT22;8251;53.568;10.018;2022-07-26T10:34:48;26.40;53.90
16287;DHT22;8251;53.568;10.018;2022-07-26T10:37:24;26.60;53.50
16287;DHT22;8251;53.568;10.018;2022-07-26T10:40:16;27.00;51.40
16287;DHT22;8251;53.568;10.018;2022-07-26T10:42:44;27.60;51.90
16287;DHT22;8251;53.568;10.018;2022-07-26T10:45:16;27.80;50.80
16287;DHT22;8251;53.568;10.018;2022-07-26T10:48:10;27.70;51.10
16287;DHT22;8251;53.568;10.018;2022-07-26T10:50:38;27.90;50.50
16287;DHT22;8251;53.568;10.018;2022-07-26T10:53:07;27.90;49.50
16287;DHT22;8251;53.568;10.018;2022-07-26T10:55:45;28.00;50.10
16287;DHT22;8251;53.568;10.018;2022-07-26T10:58:12;28.10;50.20
16287;DHT22;8251;53.568;10.018;2022-07-26T11:00:40;27.90;50.20
16287;DHT22;8251;53.568;10.018;2022-07-26T11:03:07;27.50;49.10
16287;DHT22;8251;53.568;10.018;2022-07-26T11:05:37;27.10;50.10
16287;DHT22;8251;53.568;10.018;2022-07-26T11:08:07;27.00;50.40
16287;DHT22;8251;53.568;10.018;2022-07-26T11:10:37;26.90;50.70
16287;DHT22;8251;53.568;10.018;2022-07-26T11:13:07;26.60;50.50
16287;DHT22;8251;53.568;10.018;2022-07-26T11:15:35;26.50;50.60
16287;DHT22;8251;53.568;10.018;2022-07-26T11:18:14;26.20;51.90
16287;DHT22;8251;53.568;10.018;2022-07-26T11:20:44;25.90;51.80
16287;DHT22;8251;53.568;10.018;2022-07-26T11:23:32;25.70;53.00
16287;DHT22;8251;53.568;10.018;2022-07-26T11:26:16;25.50;53.00
16287;DHT22;8251;53.568;10.018;2022-07-26T11:28:49;25.40;53.80
16287;DHT22;8251;53.568;10.018;2022-07-26T11:31:18;25.40;53.30
16287;DHT22;8251;53.568;10.018;2022-07-26T11:33:47;25.60;53.50
16287;DHT22;8251;53.568;10.018;2022-07-26T11:36:17;25.90;53.50
16287;DHT22;8251;53.568;10.018;2022-07-26T11:38:46;26.30;52.90
16287;DHT22;8251;53.568;10.018;2022-07-26T11:41:13;26.50;51.50
16287;DHT22;8251;53.568;10.018;2022-07-26T11:43:41;26.60;51.50
16287;DHT22;8251;53.568;10.018;2022-07-26T11:46:08;26.60;51.50
16287;DHT22;8251;53.568;10.018;2022-07-26T11:48:36;26.80;51.20
16287;DHT22;8251;53.568;10.018;2022-07-26T11:51:10;26.90;50.20
16287;DHT22;8251;53.568;10.018;2022-07-26T11:53:39;26.90;49.70
16287;DHT22;8251;53.568;10.018;2022-07-26T11:56:10;26.90;50.50
16287;DHT22;8251;53.568;10.018;2022-07-26T11:58:38;26.90;49.70
16287;DHT22;8251;53.568;10.018;2022-07-26T12:01:07;26.90;51.20
16287;DHT22;8251;53.568;10.018;2022-07-26T12:03:34;27.20;50.80
16287;DHT22;8251;53.568;10.018;2022-07-26T12:06:03;27.20;49.00
16287;DHT22;8251;53.568;10.018;2022-07-26T12:08:46;27.20;48.80
16287;DHT22;8251;53.568;10.018;2022-07-26T12:11:14;27.20;48.70
16287;DHT22;8251;53.568;10.018;2022-07-26T12:13:55;27.10;47.80
16287;DHT22;8251;53.568;10.018;2022-07-26T12:16:40;27.20;47.70
16287;DHT22;8251;53.568;10.018;2022-07-26T12:19:10;27.10;46.70
16287;DHT22;8251;53.568;10.018;2022-07-26T12:21:49;27.00;46.40
16287;DHT22;8251;53.568;10.018;2022-07-26T12:24:38;26.90;47.00
16287;DHT22;8251;53.568;10.018;2022-07-26T12:27:08;27.00;46.60
16287;DHT22;8251;53.568;10.018;2022-07-26T12:29:36;27.10;46.20
16287;DHT22;8251;53.568;10.018;2022-07-26T12:32:09;27.30;44.40
16287;DHT22;8251;53.568;10.018;2022-07-26T12:34:37;27.30;43.20
16287;DHT22;8251;53.568;10.018;2022-07-26T12:37:06;27.30;44.50
16287;DHT22;8251;53.568;10.018;2022-07-26T12:39:32;27.40;44.10
16287;DHT22;8251;53.568;10.018;2022-07-26T12:42:19;27.40;44.10
16287;DHT22;8251;53.568;10.018;2022-07-26T12:44:46;27.50;44.40
16287;DHT22;8251;53.568;10.018;2022-07-26T12:47:16;27.50;43.60
16287;DHT22;8251;53.568;10.018;2022-07-26T12:49:43;27.50;43.20
16287;DHT22;8251;53.568;10.018;2022-07-26T12:52:13;27.60;44.10
16287;DHT22;8251;53.568;10.018;2022-07-26T12:58:03;27.60;45.30
16287;DHT22;8251;53.568;10.018;2022-07-26T13:00:34;27.30;45.80
16287;DHT22;8251;53.568;10.018;2022-07-26T13:03:01;27.30;45.80
16287;DHT22;8251;53.568;10.018;2022-07-26T13:05:28;27.30;45.60
16287;DHT22;8251;53.568;10.018;2022-07-26T13:07:56;27.20;46.40
16287;DHT22;8251;53.568;10.018;2022-07-26T13:10:23;27.00;44.90
16287;DHT22;8251;53.568;10.018;2022-07-26T13:12:51;26.90;45.30
16287;DHT22;8251;53.568;10.018;2022-07-26T13:15:22;26.80;44.20
16287;DHT22;8251;53.568;10.018;2022-07-26T13:17:49;26.60;43.00
16287;DHT22;8251;53.568;10.018;2022-07-26T13:20:16;26.50;43.50
16287;DHT22;8251;53.568;10.018;2022-07-26T13:22:44;26.60;45.80
16287;DHT22;8251;53.568;10.018;2022-07-26T13:25:11;26.50;46.70
16287;DHT22;8251;53.568;10.018;2022-07-26T13:27:42;26.50;45.20
16287;DHT22;8251;53.568;10.018;2022-07-26T13:30:13;26.50;46.00
16287;DHT22;8251;53.568;10.018;2022-07-26T13:32:41;26.40;47.10
16287;DHT22;8251;53.568;10.018;2022-07-26T13:35:12;26.50;46.50
16287;DHT22;8251;53.568;10.018;2022-07-26T13:37:45;26.50;45.40
16287;DHT22;8251;53.568;10.018;2022-07-26T13:40:18;26.40;46.00
16287;DHT22;8251;53.568;10.018;2022-07-26T13:42:45;26.30;46.00
16287;DHT22;8251;53.568;10.018;2022-07-26T13:45:14;26.20;46.30
16287;DHT22;8251;53.568;10.018;2022-07-26T13:47:42;26.00;45.90
16287;DHT22;8251;53.568;10.018;2022-07-26T13:50:10;25.70;45.70
16287;DHT22;8251;53.568;10.018;2022-07-26T13:52:37;25.60;46.10
16287;DHT22;8251;53.568;10.018;2022-07-26T13:55:05;25.60;46.20
16287;DHT22;8251;53.568;10.018;2022-07-26T13:57:32;25.70;47.50
16287;DHT22;8251;53.568;10.018;2022-07-26T14:00:00;25.90;46.70
16287;DHT22;8251;53.568;10.018;2022-07-26T14:02:27;26.00;47.70
16287;DHT22;8251;53.568;10.018;2022-07-26T14:04:56;26.00;48.60
16287;DHT22;8251;53.568;10.018;2022-07-26T14:07:23;26.20;48.70
16287;DHT22;8251;53.568;10.018;2022-07-26T14:09:50;26.30;47.40
16287;DHT22;8251;53.568;10.018;2022-07-26T14:12:22;26.30;45.90
16287;DHT22;8251;53.568;10.018;2022-07-26T14:14:53;26.20;45.80
16287;DHT22;8251;53.568;10.018;2022-07-26T14:17:20;26.20;47.70
16287;DHT22;8251;53.568;10.018;2022-07-26T14:19:48;26.10;46.50
16287;DHT22;8251;53.568;10.018;2022-07-26T14:22:17;26.00;46.90
16287;DHT22;8251;53.568;10.018;2022-07-26T14:24:44;25.90;46.60
16287;DHT22;8251;53.568;10.018;2022-07-26T14:27:11;25.80;47.20
16287;DHT22;8251;53.568;10.018;2022-07-26T14:29:39;25.70;46.90
16287;DHT22;8251;53.568;10.018;2022-07-26T14:32:06;25.60;45.60
16287;DHT22;8251;53.568;10.018;2022-07-26T14:34:33;25.40;45.50
16287;DHT22;8251;53.568;10.018;2022-07-26T14:37:00;25.30;45.60
16287;DHT22;8251;53.568;10.018;2022-07-26T14:39:29;25.30;46.20
16287;DHT22;8251;53.568;10.018;2022-07-26T14:41:56;25.40;46.80
16287;DHT22;8251;53.568;10.018;2022-07-26T14:44:23;25.40;46.10
16287;DHT22;8251;53.568;10.018;2022-07-26T14:46:52;25.40;46.00
16287;DHT22;8251;53.568;10.018;2022-07-26T14:49:21;25.50;46.70
16287;DHT22;8251;53.568;10.018;2022-07-26T14:51:48;25.40;46.70
16287;DHT22;8251;53.568;10.018;2022-07-26T14:54:17;25.40;47.00
16287;DHT22;8251;53.568;10.018;2022-07-26T14:56:45;25.50;47.00
16287;DHT22;8251;53.568;10.018;2022-07-26T14:59:13;25.50;47.80
16287;DHT22;8251;53.568;10.018;2022-07-26T15:01:41;25.70;48.10
16287;DHT22;8251;53.568;10.018;2022-07-26T15:04:08;25.80;47.00
16287;DHT22;8251;53.568;10.018;2022-07-26T15:06:35;25.80;45.40
16287;DHT22;8251;53.568;10.018;2022-07-26T15:09:02;25.80;44.40
16287;DHT22;8251;53.568;10.018;2022-07-26T15:11:30;25.70;44.40
16287;DHT22;8251;53.568;10.018;2022-07-26T15:13:58;25.70;44.60
16287;DHT22;8251;53.568;10.018;2022-07-26T15:16:25;25.60;44.90
16287;DHT22;8251;53.568;10.018;2022-07-26T15:18:52;25.50;45.50
16287;DHT22;8251;53.568;10.018;2022-07-26T15:21:19;25.40;44.50
16287;DHT22;8251;53.568;10.018;2022-07-26T15:23:46;25.30;45.00
16287;DHT22;8251;53.568;10.018;2022-07-26T15:26:13;25.10;45.50
16287;DHT22;8251;53.568;10.018;2022-07-26T15:28:40;25.00;45.90
16287;DHT22;8251;53.568;10.018;2022-07-26T15:31:10;24.80;47.00
16287;DHT22;8251;53.568;10.018;2022-07-26T15:33:37;24.70;47.20
16287;DHT22;8251;53.568;10.018;2022-07-26T15:36:04;24.60;48.10
16287;DHT22;8251;53.568;10.018;2022-07-26T15:38:31;24.50;48.40
16287;DHT22;8251;53.568;10.018;2022-07-26T15:41:02;24.40;49.30
16287;DHT22;8251;53.568;10.018;2022-07-26T15:43:29;24.30;49.10
16287;DHT22;8251;53.568;10.018;2022-07-26T15:45:56;24.20;50.30